sensor_id;sensor_type;location;lat;lon;timestamp;pressure;altitude;pressure_sealevel;temperature;humidity
9676;BME280;4876;42.656;23.292;2023-12-20T00:02:09;94738.75;;;0.88;78.18
9676;BME280;4876;42.656;23.292;2023-12-20T00:04:34;94744.66;;;0.92;78.05
9676;BME280;4876;42.656;23.292;2023-12-20T00:07:00;94737.78;;;0.98;78.05
9676;BME280;4876;42.656;23.292;2023-12-20T00:09:26;94721.00;;;0.94;77.61
9676;BME280;4876;42.656;23.292;2023-12-20T00:11:52;94720.88;;;1.00;77.90
9676;BME280;4876;42.656;23.292;2023-12-20T00:14:17;94721.91;;;1.10;77.42
9676;BME280;4876;42.656;23.292;2023-12-20T00:16:43;94723.28;;;1.03;76.81
9676;BME280;4876;42.656;23.292;2023-12-20T00:19:09;94718.59;;;0.91;77.18
9676;BME280;4876;42.656;23.292;2023-12-20T00:21:35;94713.75;;;0.97;76.63
9676;BME280;4876;42.656;23.292;2023-12-20T00:24:00;94716.31;;;0.82;77.19
9676;BME280;4876;42.656;23.292;2023-12-20T00:26:26;94707.09;;;0.72;77.49
9676;BME280;4876;42.656;23.292;2023-12-20T00:28:53;94704.47;;;0.66;77.72
9676;BME280;4876;42.656;23.292;2023-12-20T00:31:18;94697.03;;;0.67;78.43
9676;BME280;4876;42.656;23.292;2023-12-20T00:33:44;94699.38;;;0.63;78.45
9676;BME280;4876;42.656;23.292;2023-12-20T00:36:11;94686.81;;;0.46;78.23
9676;BME280;4876;42.656;23.292;2023-12-20T00:38:37;94685.75;;;0.49;78.15
9676;BME280;4876;42.656;23.292;2023-12-20T00:41:02;94688.13;;;0.53;77.56
9676;BME280;4876;42.656;23.292;2023-12-20T00:43:28;94686.81;;;0.46;77.89
9676;BME280;4876;42.656;23.292;2023-12-20T00:45:53;94681.78;;;0.37;78.69
9676;BME280;4876;42.656;23.292;2023-12-20T00:48:20;94685.78;;;0.36;78.12
9676;BME280;4876;42.656;23.292;2023-12-20T00:50:46;94682.72;;;0.27;78.06
9676;BME280;4876;42.656;23.292;2023-12-20T00:53:11;94676.88;;;0.23;78.89
9676;BME280;4876;42.656;23.292;2023-12-20T00:55:37;94679.06;;;0.24;79.26
9676;BME280;4876;42.656;23.292;2023-12-20T00:58:03;94678.75;;;0.28;78.94
9676;BME280;4876;42.656;23.292;2023-12-20T01:00:28;94676.44;;;0.32;79.05
9676;BME280;4876;42.656;23.292;2023-12-20T01:02:54;94663.53;;;0.32;78.77
9676;BME280;4876;42.656;23.292;2023-12-20T01:05:19;94661.75;;;0.35;79.18
9676;BME280;4876;42.656;23.292;2023-12-20T01:07:48;94662.16;;;0.39;79.60
9676;BME280;4876;42.656;23.292;2023-12-20T01:10:14;94653.53;;;0.48;79.36
9676;BME280;4876;42.656;23.292;2023-12-20T01:12:39;94655.31;;;0.45;78.89
9676;BME280;4876;42.656;23.292;2023-12-20T01:15:05;94657.06;;;0.56;77.82
9676;BME280;4876;42.656;23.292;2023-12-20T01:17:31;94656.56;;;0.57;78.04
9676;BME280;4876;42.656;23.292;2023-12-20T01:19:56;94656.94;;;0.61;78.53
9676;BME280;4876;42.656;23.292;2023-12-20T01:22:22;94652.91;;;0.55;77.99
9676;BME280;4876;42.656;23.292;2023-12-20T01:24:47;94643.53;;;0.50;78.21
9676;BME280;4876;42.656;23.292;2023-12-20T01:27:13;94639.75;;;0.53;77.58
9676;BME280;4876;42.656;23.292;2023-12-20T01:29:38;94636.44;;;0.47;77.52
9676;BME280;4876;42.656;23.292;2023-12-20T01:32:04;94627.94;;;0.38;77.59
9676;BME280;4876;42.656;23.292;2023-12-20T01:34:30;94636.38;;;0.27;78.12
9676;BME280;4876;42.656;23.292;2023-12-20T01:36:55;94628.25;;;0.34;78.24
9676;BME280;4876;42.656;23.292;2023-12-20T01:39:21;94632.34;;;0.41;78.63
9676;BME280;4876;42.656;23.292;2023-12-20T01:41:46;94632.03;;;0.44;77.89
9676;BME280;4876;42.656;23.292;2023-12-20T01:44:12;94614.28;;;0.51;77.53
9676;BME280;4876;42.656;23.292;2023-12-20T01:46:38;94614.34;;;0.58;76.97
9676;BME280;4876;42.656;23.292;2023-12-20T01:49:03;94610.91;;;0.45;76.98
9676;BME280;4876;42.656;23.292;2023-12-20T01:51:29;94590.03;;;0.14;78.54
9676;BME280;4876;42.656;23.292;2023-12-20T01:53:57;94604.06;;;0.31;77.67
9676;BME280;4876;42.656;23.292;2023-12-20T01:56:23;94602.06;;;0.31;77.18
9676;BME280;4876;42.656;23.292;2023-12-20T01:58:49;94598.25;;;0.34;77.65
9676;BME280;4876;42.656;23.292;2023-12-20T02:01:15;94589.56;;;0.36;76.90
9676;BME280;4876;42.656;23.292;2023-12-20T02:03:41;94595.94;;;0.38;77.30
9676;BME280;4876;42.656;23.292;2023-12-20T02:06:09;94577.63;;;0.26;77.89
9676;BME280;4876;42.656;23.292;2023-12-20T02:08:35;94584.63;;;0.34;77.83
9676;BME280;4876;42.656;23.292;2023-12-20T02:11:01;94587.78;;;0.38;77.87
9676;BME280;4876;42.656;23.292;2023-12-20T02:13:30;94579.97;;;0.42;77.77
9676;BME280;4876;42.656;23.292;2023-12-20T02:15:56;94574.75;;;0.44;77.77
9676;BME280;4876;42.656;23.292;2023-12-20T02:18:22;94574.53;;;0.42;77.32
9676;BME280;4876;42.656;23.292;2023-12-20T02:20:48;94562.47;;;0.38;77.47
9676;BME280;4876;42.656;23.292;2023-12-20T02:23:13;94569.06;;;0.42;77.54
9676;BME280;4876;42.656;23.292;2023-12-20T02:25:39;94575.44;;;0.45;78.04
9676;BME280;4876;42.656;23.292;2023-12-20T02:28:05;94565.81;;;0.44;77.43
9676;BME280;4876;42.656;23.292;2023-12-20T02:30:32;94569.47;;;0.46;78.26
9676;BME280;4876;42.656;23.292;2023-12-20T02:32:59;94560.03;;;0.47;78.13
9676;BME280;4876;42.656;23.292;2023-12-20T02:35:25;94563.88;;;0.31;78.42
9676;BME280;4876;42.656;23.292;2023-12-20T02:37:50;94548.09;;;0.37;78.20
9676;BME280;4876;42.656;23.292;2023-12-20T02:40:16;94548.31;;;0.39;78.40
9676;BME280;4876;42.656;23.292;2023-12-20T02:42:41;94548.72;;;0.43;78.79
9676;BME280;4876;42.656;23.292;2023-12-20T02:45:07;94532.16;;;0.41;78.75
9676;BME280;4876;42.656;23.292;2023-12-20T02:47:33;94544.00;;;0.44;78.26
9676;BME280;4876;42.656;23.292;2023-12-20T02:49:58;94543.44;;;0.45;77.92
9676;BME280;4876;42.656;23.292;2023-12-20T02:52:24;94535.75;;;0.36;77.90
9676;BME280;4876;42.656;23.292;2023-12-20T02:54:50;94552.84;;;0.37;77.16
9676;BME280;4876;42.656;23.292;2023-12-20T02:57:15;94553.38;;;0.35;77.89
9676;BME280;4876;42.656;23.292;2023-12-20T02:59:41;94547.50;;;0.31;78.19
9676;BME280;4876;42.656;23.292;2023-12-20T03:02:06;94544.97;;;0.33;77.74
9676;BME280;4876;42.656;23.292;2023-12-20T03:04:32;94545.91;;;0.36;76.94
9676;BME280;4876;42.656;23.292;2023-12-20T03:06:57;94538.06;;;0.32;78.34
9676;BME280;4876;42.656;23.292;2023-12-20T03:09:23;94541.31;;;0.31;77.40
9676;BME280;4876;42.656;23.292;2023-12-20T03:11:48;94542.06;;;0.31;77.76
9676;BME280;4876;42.656;23.292;2023-12-20T03:14:14;94538.41;;;0.29;77.51
9676;BME280;4876;42.656;23.292;2023-12-20T03:16:39;94535.88;;;0.31;77.18
9676;BME280;4876;42.656;23.292;2023-12-20T03:19:05;94530.41;;;0.31;77.56
9676;BME280;4876;42.656;23.292;2023-12-20T03:21:30;94531.84;;;0.32;77.46
9676;BME280;4876;42.656;23.292;2023-12-20T03:23:56;94529.66;;;0.30;77.48
9676;BME280;4876;42.656;23.292;2023-12-20T03:26:21;94529.66;;;0.30;77.63
9676;BME280;4876;42.656;23.292;2023-12-20T03:28:48;94526.75;;;0.28;77.38
9676;BME280;4876;42.656;23.292;2023-12-20T03:31:14;94522.34;;;0.25;78.15
9676;BME280;4876;42.656;23.292;2023-12-20T03:33:39;94513.44;;;0.25;76.68
9676;BME280;4876;42.656;23.292;2023-12-20T03:36:05;94514.59;;;0.16;77.40
9676;BME280;4876;42.656;23.292;2023-12-20T03:38:31;94521.53;;;0.17;77.30
9676;BME280;4876;42.656;23.292;2023-12-20T03:40:56;94510.72;;;-0.09;78.55
9676;BME280;4876;42.656;23.292;2023-12-20T03:43:22;94505.03;;;0.02;78.90
9676;BME280;4876;42.656;23.292;2023-12-20T03:45:47;94519.31;;;-0.18;79.18
9676;BME280;4876;42.656;23.292;2023-12-20T03:48:13;94517.47;;;-0.23;78.96
9676;BME280;4876;42.656;23.292;2023-12-20T03:50:38;94517.47;;;-0.23;78.78
9676;BME280;4876;42.656;23.292;2023-12-20T03:53:04;94510.66;;;-0.30;78.45
9676;BME280;4876;42.656;23.292;2023-12-20T03:55:30;94518.84;;;-0.30;78.67
9676;BME280;4876;42.656;23.292;2023-12-20T03:57:55;94515.19;;;-0.32;77.86
9676;BME280;4876;42.656;23.292;2023-12-20T04:00:20;94508.56;;;-0.37;78.65
9676;BME280;4876;42.656;23.292;2023-12-20T04:02:46;94504.09;;;-0.34;78.32
9676;BME280;4876;42.656;23.292;2023-12-20T04:05:12;94501.75;;;-0.30;78.03
9676;BME280;4876;42.656;23.292;2023-12-20T04:07:37;94507.03;;;-0.45;79.38
9676;BME280;4876;42.656;23.292;2023-12-20T04:10:03;94496.13;;;-0.45;78.26
9676;BME280;4876;42.656;23.292;2023-12-20T04:12:30;94497.41;;;-0.73;78.76
9676;BME280;4876;42.656;23.292;2023-12-20T04:14:56;94489.03;;;-0.62;80.52
9676;BME280;4876;42.656;23.292;2023-12-20T04:17:22;94494.69;;;-0.73;80.44
9676;BME280;4876;42.656;23.292;2023-12-20T04:19:51;94488.63;;;-0.79;80.86
9676;BME280;4876;42.656;23.292;2023-12-20T04:22:18;94486.31;;;-0.75;80.26
9676;BME280;4876;42.656;23.292;2023-12-20T04:24:44;94485.28;;;-0.72;81.65
9676;BME280;4876;42.656;23.292;2023-12-20T04:27:10;94482.31;;;-0.74;81.32
9676;BME280;4876;42.656;23.292;2023-12-20T04:29:35;94475.84;;;-1.10;82.63
9676;BME280;4876;42.656;23.292;2023-12-20T04:32:01;94479.75;;;-0.92;82.19
9676;BME280;4876;42.656;23.292;2023-12-20T04:34:27;94472.72;;;-0.88;81.63
9676;BME280;4876;42.656;23.292;2023-12-20T04:36:53;94473.56;;;-0.80;80.78
9676;BME280;4876;42.656;23.292;2023-12-20T04:39:18;94468.53;;;-1.02;82.42
9676;BME280;4876;42.656;23.292;2023-12-20T04:41:44;94469.38;;;-0.94;81.69
9676;BME280;4876;42.656;23.292;2023-12-20T04:44:09;94468.22;;;-0.85;80.30
9676;BME280;4876;42.656;23.292;2023-12-20T04:46:35;94469.66;;;-0.84;80.12
9676;BME280;4876;42.656;23.292;2023-12-20T04:49:01;94464.44;;;-0.82;79.73
9676;BME280;4876;42.656;23.292;2023-12-20T04:51:26;94466.63;;;-0.81;80.29
9676;BME280;4876;42.656;23.292;2023-12-20T04:53:52;94468.72;;;-0.74;80.74
9676;BME280;4876;42.656;23.292;2023-12-20T04:56:18;94456.47;;;-0.80;81.24
9676;BME280;4876;42.656;23.292;2023-12-20T04:58:43;94466.72;;;-0.73;80.34
9676;BME280;4876;42.656;23.292;2023-12-20T05:01:09;94453.03;;;-0.81;80.63
9676;BME280;4876;42.656;23.292;2023-12-20T05:03:35;94466.09;;;-0.66;79.33
9676;BME280;4876;42.656;23.292;2023-12-20T05:06:01;94448.03;;;-1.03;79.50
9676;BME280;4876;42.656;23.292;2023-12-20T05:08:26;94446.25;;;-1.13;79.96
9676;BME280;4876;42.656;23.292;2023-12-20T05:10:54;94455.13;;;-1.00;80.54
9676;BME280;4876;42.656;23.292;2023-12-20T05:13:19;94451.56;;;-0.95;80.00
9676;BME280;4876;42.656;23.292;2023-12-20T05:15:45;94446.53;;;-0.91;79.69
9676;BME280;4876;42.656;23.292;2023-12-20T05:18:11;94453.22;;;-0.92;79.19
9676;BME280;4876;42.656;23.292;2023-12-20T05:20:36;94456.78;;;-0.84;80.65
9676;BME280;4876;42.656;23.292;2023-12-20T05:23:02;94440.91;;;-1.06;79.91
9676;BME280;4876;42.656;23.292;2023-12-20T05:25:28;94437.75;;;-1.23;80.40
9676;BME280;4876;42.656;23.292;2023-12-20T05:27:53;94443.94;;;-1.23;80.34
9676;BME280;4876;42.656;23.292;2023-12-20T05:30:19;94433.16;;;-1.28;80.47
9676;BME280;4876;42.656;23.292;2023-12-20T05:32:44;94434.63;;;-1.27;80.21
9676;BME280;4876;42.656;23.292;2023-12-20T05:35:10;94416.63;;;-1.30;79.46
9676;BME280;4876;42.656;23.292;2023-12-20T05:37:35;94430.88;;;-1.24;80.58
9676;BME280;4876;42.656;23.292;2023-12-20T05:40:01;94427.91;;;-1.26;79.51
9676;BME280;4876;42.656;23.292;2023-12-20T05:42:26;94425.41;;;-1.24;80.19
9676;BME280;4876;42.656;23.292;2023-12-20T05:44:52;94426.13;;;-1.24;79.98
9676;BME280;4876;42.656;23.292;2023-12-20T05:47:17;94429.59;;;-1.23;79.97
9676;BME280;4876;42.656;23.292;2023-12-20T05:49:43;94421.75;;;-1.40;80.11
9676;BME280;4876;42.656;23.292;2023-12-20T05:52:09;94419.34;;;-1.43;80.03
9676;BME280;4876;42.656;23.292;2023-12-20T05:54:34;94424.03;;;-1.44;81.15
9676;BME280;4876;42.656;23.292;2023-12-20T05:57:00;94423.50;;;-1.42;79.78
9676;BME280;4876;42.656;23.292;2023-12-20T05:59:26;94409.91;;;-1.55;80.26
9676;BME280;4876;42.656;23.292;2023-12-20T06:01:51;94415.78;;;-1.51;79.16
9676;BME280;4876;42.656;23.292;2023-12-20T06:04:17;94398.66;;;-1.91;79.44
9676;BME280;4876;42.656;23.292;2023-12-20T06:06:43;94416.19;;;-2.05;79.87
9676;BME280;4876;42.656;23.292;2023-12-20T06:09:09;94414.84;;;-2.30;81.27
9676;BME280;4876;42.656;23.292;2023-12-20T06:11:35;94410.94;;;-2.48;82.88
9676;BME280;4876;42.656;23.292;2023-12-20T06:14:00;94403.03;;;-2.33;82.31
9676;BME280;4876;42.656;23.292;2023-12-20T06:16:26;94423.72;;;-2.11;81.74
9676;BME280;4876;42.656;23.292;2023-12-20T06:18:51;94407.91;;;-2.63;82.55
9676;BME280;4876;42.656;23.292;2023-12-20T06:21:17;94428.09;;;-2.40;81.85
9676;BME280;4876;42.656;23.292;2023-12-20T06:23:42;94419.88;;;-2.34;81.86
9676;BME280;4876;42.656;23.292;2023-12-20T06:26:08;94416.97;;;-2.92;83.44
9676;BME280;4876;42.656;23.292;2023-12-20T06:28:33;94416.94;;;-2.55;84.02
9676;BME280;4876;42.656;23.292;2023-12-20T06:30:59;94428.47;;;-2.68;84.63
9676;BME280;4876;42.656;23.292;2023-12-20T06:33:26;94407.56;;;-2.22;82.28
9676;BME280;4876;42.656;23.292;2023-12-20T06:35:51;94417.34;;;-2.32;82.76
9676;BME280;4876;42.656;23.292;2023-12-20T06:38:18;94422.38;;;-2.23;83.42
9676;BME280;4876;42.656;23.292;2023-12-20T06:40:44;94416.22;;;-2.24;82.48
9676;BME280;4876;42.656;23.292;2023-12-20T06:43:09;94409.09;;;-2.59;82.77
9676;BME280;4876;42.656;23.292;2023-12-20T06:45:35;94415.59;;;-2.30;82.69
9676;BME280;4876;42.656;23.292;2023-12-20T06:48:01;94411.41;;;-2.31;82.45
9676;BME280;4876;42.656;23.292;2023-12-20T06:50:26;94396.78;;;-2.28;81.83
9676;BME280;4876;42.656;23.292;2023-12-20T06:52:52;94401.69;;;-2.26;81.81
9676;BME280;4876;42.656;23.292;2023-12-20T06:55:18;94394.59;;;-2.29;81.66
9676;BME280;4876;42.656;23.292;2023-12-20T06:57:44;94395.56;;;-2.27;82.72
9676;BME280;4876;42.656;23.292;2023-12-20T07:00:11;94380.13;;;-2.19;81.60
9676;BME280;4876;42.656;23.292;2023-12-20T07:02:37;94396.63;;;-2.17;82.52
9676;BME280;4876;42.656;23.292;2023-12-20T07:05:03;94394.03;;;-2.09;82.26
9676;BME280;4876;42.656;23.292;2023-12-20T07:07:29;94375.91;;;-2.20;82.02
9676;BME280;4876;42.656;23.292;2023-12-20T07:09:55;94389.13;;;-2.11;83.83
9676;BME280;4876;42.656;23.292;2023-12-20T07:12:20;94384.03;;;-2.33;83.80
9676;BME280;4876;42.656;23.292;2023-12-20T07:14:46;94391.84;;;-2.42;85.31
9676;BME280;4876;42.656;23.292;2023-12-20T07:17:12;94380.59;;;-2.52;84.63
9676;BME280;4876;42.656;23.292;2023-12-20T07:19:42;94379.97;;;-2.58;85.36
9676;BME280;4876;42.656;23.292;2023-12-20T07:22:07;94372.38;;;-2.47;86.59
9676;BME280;4876;42.656;23.292;2023-12-20T07:24:33;94376.31;;;-2.29;86.75
9676;BME280;4876;42.656;23.292;2023-12-20T07:26:59;94367.22;;;-2.31;86.37
9676;BME280;4876;42.656;23.292;2023-12-20T07:29:25;94357.28;;;-2.61;86.49
9676;BME280;4876;42.656;23.292;2023-12-20T07:31:50;94358.69;;;-2.54;87.60
9676;BME280;4876;42.656;23.292;2023-12-20T07:34:17;94359.75;;;-2.44;87.07
9676;BME280;4876;42.656;23.292;2023-12-20T07:36:43;94364.81;;;-1.90;85.27
9676;BME280;4876;42.656;23.292;2023-12-20T07:39:08;94371.94;;;-1.87;85.10
9676;BME280;4876;42.656;23.292;2023-12-20T07:41:34;94361.41;;;-2.54;86.84
9676;BME280;4876;42.656;23.292;2023-12-20T07:43:59;94379.47;;;-2.25;88.43
9676;BME280;4876;42.656;23.292;2023-12-20T07:46:25;94367.41;;;-1.98;85.74
9676;BME280;4876;42.656;23.292;2023-12-20T07:48:50;94364.91;;;-1.96;85.85
9676;BME280;4876;42.656;23.292;2023-12-20T07:51:16;94367.56;;;-1.64;86.54
9676;BME280;4876;42.656;23.292;2023-12-20T07:53:41;94363.25;;;-1.46;84.55
9676;BME280;4876;42.656;23.292;2023-12-20T07:56:17;94357.72;;;-1.41;85.72
9676;BME280;4876;42.656;23.292;2023-12-20T07:58:43;94376.03;;;-1.28;84.40
9676;BME280;4876;42.656;23.292;2023-12-20T08:01:11;94352.69;;;-1.50;84.75
9676;BME280;4876;42.656;23.292;2023-12-20T08:03:37;94355.41;;;-1.24;85.59
9676;BME280;4876;42.656;23.292;2023-12-20T08:06:03;94365.97;;;-1.46;83.88
9676;BME280;4876;42.656;23.292;2023-12-20T08:08:29;94367.03;;;-1.49;86.77
9676;BME280;4876;42.656;23.292;2023-12-20T08:10:55;94353.41;;;-1.23;85.77
9676;BME280;4876;42.656;23.292;2023-12-20T08:13:20;94353.88;;;-0.51;83.06
9676;BME280;4876;42.656;23.292;2023-12-20T08:15:50;94349.56;;;-0.26;82.23
9676;BME280;4876;42.656;23.292;2023-12-20T08:18:15;94342.13;;;-0.26;82.67
9676;BME280;4876;42.656;23.292;2023-12-20T08:20:41;94344.44;;;-0.09;81.48
9676;BME280;4876;42.656;23.292;2023-12-20T08:23:07;94343.31;;;0.07;80.69
9676;BME280;4876;42.656;23.292;2023-12-20T08:25:32;94341.25;;;0.00;80.66
9676;BME280;4876;42.656;23.292;2023-12-20T08:27:57;94336.84;;;0.18;79.48
9676;BME280;4876;42.656;23.292;2023-12-20T08:30:23;94339.66;;;0.05;79.23
9676;BME280;4876;42.656;23.292;2023-12-20T08:32:49;94338.00;;;-0.19;79.58
9676;BME280;4876;42.656;23.292;2023-12-20T08:35:14;94334.63;;;-0.33;80.19
9676;BME280;4876;42.656;23.292;2023-12-20T08:37:40;94325.47;;;0.06;79.97
9676;BME280;4876;42.656;23.292;2023-12-20T08:40:05;94323.25;;;-0.03;78.15
9676;BME280;4876;42.656;23.292;2023-12-20T08:42:31;94315.28;;;-0.22;79.73
9676;BME280;4876;42.656;23.292;2023-12-20T08:44:57;94315.16;;;-0.16;81.17
9676;BME280;4876;42.656;23.292;2023-12-20T08:47:24;94309.81;;;-0.01;81.68
9676;BME280;4876;42.656;23.292;2023-12-20T08:49:50;94305.50;;;0.11;80.82
9676;BME280;4876;42.656;23.292;2023-12-20T08:52:15;94309.75;;;0.20;81.14
9676;BME280;4876;42.656;23.292;2023-12-20T08:54:41;94302.31;;;0.20;80.38
9676;BME280;4876;42.656;23.292;2023-12-20T08:57:08;94299.81;;;0.30;79.94
9676;BME280;4876;42.656;23.292;2023-12-20T08:59:34;94318.34;;;0.24;80.10
9676;BME280;4876;42.656;23.292;2023-12-20T09:01:59;94299.97;;;0.24;80.00
9676;BME280;4876;42.656;23.292;2023-12-20T09:04:25;94293.53;;;-0.14;82.62
9676;BME280;4876;42.656;23.292;2023-12-20T09:06:50;94288.06;;;0.42;80.48
9676;BME280;4876;42.656;23.292;2023-12-20T09:09:16;94274.91;;;0.61;79.10
9676;BME280;4876;42.656;23.292;2023-12-20T09:11:41;94258.66;;;0.48;79.77
9676;BME280;4876;42.656;23.292;2023-12-20T09:14:07;94269.78;;;0.22;80.95
9676;BME280;4876;42.656;23.292;2023-12-20T09:16:33;94242.53;;;-0.34;84.00
9676;BME280;4876;42.656;23.292;2023-12-20T09:18:59;94246.38;;;-0.02;84.53
9676;BME280;4876;42.656;23.292;2023-12-20T09:21:24;94240.66;;;0.17;82.65
9676;BME280;4876;42.656;23.292;2023-12-20T09:23:50;94226.56;;;-0.02;82.49
9676;BME280;4876;42.656;23.292;2023-12-20T09:26:16;94223.09;;;0.26;81.74
9676;BME280;4876;42.656;23.292;2023-12-20T09:28:41;94219.88;;;0.07;81.90
9676;BME280;4876;42.656;23.292;2023-12-20T09:31:07;94220.38;;;0.33;81.80
9676;BME280;4876;42.656;23.292;2023-12-20T09:33:33;94213.50;;;0.04;82.78
9676;BME280;4876;42.656;23.292;2023-12-20T09:35:58;94203.81;;;0.24;83.39
9676;BME280;4876;42.656;23.292;2023-12-20T09:38:24;94197.06;;;0.60;81.65
9676;BME280;4876;42.656;23.292;2023-12-20T09:40:50;94191.25;;;0.79;79.69
9676;BME280;4876;42.656;23.292;2023-12-20T09:43:18;94197.28;;;0.78;81.05
9676;BME280;4876;42.656;23.292;2023-12-20T09:45:46;94191.25;;;0.79;79.40
9676;BME280;4876;42.656;23.292;2023-12-20T09:48:12;94176.34;;;0.88;79.40
9676;BME280;4876;42.656;23.292;2023-12-20T09:50:40;94176.03;;;0.99;79.96
9676;BME280;4876;42.656;23.292;2023-12-20T09:53:08;94172.22;;;1.17;78.15
9676;BME280;4876;42.656;23.292;2023-12-20T09:55:36;94173.50;;;1.23;78.49
9676;BME280;4876;42.656;23.292;2023-12-20T09:58:02;94163.28;;;1.24;77.90
9676;BME280;4876;42.656;23.292;2023-12-20T10:00:27;94163.09;;;0.99;79.86
9676;BME280;4876;42.656;23.292;2023-12-20T10:02:56;94173.84;;;1.12;80.05
9676;BME280;4876;42.656;23.292;2023-12-20T10:05:28;94161.81;;;0.93;81.50
9676;BME280;4876;42.656;23.292;2023-12-20T10:07:54;94166.56;;;1.15;80.23
9676;BME280;4876;42.656;23.292;2023-12-20T10:10:20;94164.22;;;1.57;77.99
9676;BME280;4876;42.656;23.292;2023-12-20T10:13:08;94158.53;;;1.70;77.20
9676;BME280;4876;42.656;23.292;2023-12-20T10:15:37;94140.84;;;1.86;76.27
9676;BME280;4876;42.656;23.292;2023-12-20T10:18:04;94139.22;;;1.68;77.26
9676;BME280;4876;42.656;23.292;2023-12-20T10:20:30;94136.81;;;1.79;76.81
9676;BME280;4876;42.656;23.292;2023-12-20T10:23:00;94139.59;;;1.72;75.97
9676;BME280;4876;42.656;23.292;2023-12-20T10:25:26;94133.41;;;1.64;77.20
9676;BME280;4876;42.656;23.292;2023-12-20T10:28:11;94127.31;;;1.96;76.66
9676;BME280;4876;42.656;23.292;2023-12-20T10:30:37;94115.91;;;2.22;76.11
9676;BME280;4876;42.656;23.292;2023-12-20T10:33:05;94113.56;;;2.18;75.27
9676;BME280;4876;42.656;23.292;2023-12-20T10:35:31;94100.13;;;1.98;75.19
9676;BME280;4876;42.656;23.292;2023-12-20T10:37:58;94101.03;;;2.47;72.84
9676;BME280;4876;42.656;23.292;2023-12-20T10:40:27;94102.00;;;2.67;73.31
9676;BME280;4876;42.656;23.292;2023-12-20T10:42:55;94086.31;;;2.68;73.44
9676;BME280;4876;42.656;23.292;2023-12-20T10:45:22;94090.16;;;2.65;72.80
9676;BME280;4876;42.656;23.292;2023-12-20T10:47:50;94083.69;;;2.77;72.65
9676;BME280;4876;42.656;23.292;2023-12-20T10:50:17;94074.63;;;2.67;72.26
9676;BME280;4876;42.656;23.292;2023-12-20T10:52:44;94092.03;;;2.87;72.45
9676;BME280;4876;42.656;23.292;2023-12-20T10:55:11;94072.94;;;2.47;73.79
9676;BME280;4876;42.656;23.292;2023-12-20T10:57:36;94071.00;;;2.65;75.15
9676;BME280;4876;42.656;23.292;2023-12-20T11:00:02;94071.69;;;2.97;72.55
9676;BME280;4876;42.656;23.292;2023-12-20T11:02:32;94064.03;;;2.71;73.80
9676;BME280;4876;42.656;23.292;2023-12-20T11:05:22;94063.47;;;2.97;72.23
9676;BME280;4876;42.656;23.292;2023-12-20T11:07:58;94055.28;;;2.90;72.73
9676;BME280;4876;42.656;23.292;2023-12-20T11:11:07;94059.38;;;3.06;72.87
9676;BME280;4876;42.656;23.292;2023-12-20T11:13:43;94054.03;;;3.16;72.12
9676;BME280;4876;42.656;23.292;2023-12-20T11:16:13;94037.53;;;2.98;71.07
9676;BME280;4876;42.656;23.292;2023-12-20T11:18:40;94042.41;;;3.07;72.54
9676;BME280;4876;42.656;23.292;2023-12-20T11:21:06;94036.28;;;3.17;72.30
9676;BME280;4876;42.656;23.292;2023-12-20T11:23:32;94032.91;;;3.26;72.35
9676;BME280;4876;42.656;23.292;2023-12-20T11:26:01;94027.59;;;3.28;71.60
9676;BME280;4876;42.656;23.292;2023-12-20T11:28:29;94021.59;;;3.22;72.68
9676;BME280;4876;42.656;23.292;2023-12-20T11:30:56;94013.34;;;3.29;72.73
9676;BME280;4876;42.656;23.292;2023-12-20T11:33:45;94012.44;;;3.44;71.58
9676;BME280;4876;42.656;23.292;2023-12-20T11:36:18;93996.81;;;3.37;71.30
9676;BME280;4876;42.656;23.292;2023-12-20T11:38:56;93996.88;;;3.46;72.46
9676;BME280;4876;42.656;23.292;2023-12-20T11:41:23;93986.09;;;3.31;72.66
9676;BME280;4876;42.656;23.292;2023-12-20T11:43:53;93986.50;;;3.45;71.67
9676;BME280;4876;42.656;23.292;2023-12-20T11:46:19;93972.63;;;3.60;72.02
9676;BME280;4876;42.656;23.292;2023-12-20T11:48:45;93980.75;;;3.67;70.93
9676;BME280;4876;42.656;23.292;2023-12-20T11:51:14;93963.91;;;3.54;70.86
9676;BME280;4876;42.656;23.292;2023-12-20T11:53:40;93952.84;;;3.61;71.42
9676;BME280;4876;42.656;23.292;2023-12-20T11:56:08;93957.38;;;3.49;70.94
9676;BME280;4876;42.656;23.292;2023-12-20T11:58:34;93945.75;;;3.58;71.35
9676;BME280;4876;42.656;23.292;2023-12-20T12:01:00;93951.00;;;3.64;71.21
9676;BME280;4876;42.656;23.292;2023-12-20T12:03:27;93934.97;;;3.60;70.61
9676;BME280;4876;42.656;23.292;2023-12-20T12:05:53;93929.53;;;3.70;70.70
9676;BME280;4876;42.656;23.292;2023-12-20T12:08:19;93926.50;;;3.66;71.80
9676;BME280;4876;42.656;23.292;2023-12-20T12:10:45;93918.09;;;3.91;70.29
9676;BME280;4876;42.656;23.292;2023-12-20T12:13:11;93918.06;;;3.81;70.02
9676;BME280;4876;42.656;23.292;2023-12-20T12:15:37;93912.50;;;3.98;70.06
9676;BME280;4876;42.656;23.292;2023-12-20T12:18:03;93906.72;;;3.94;70.08
9676;BME280;4876;42.656;23.292;2023-12-20T12:20:30;93914.97;;;3.94;70.62
9676;BME280;4876;42.656;23.292;2023-12-20T12:23:03;93906.22;;;4.05;70.51
9676;BME280;4876;42.656;23.292;2023-12-20T12:25:35;93903.47;;;4.05;69.83
9676;BME280;4876;42.656;23.292;2023-12-20T12:28:01;93904.53;;;4.19;70.59
9676;BME280;4876;42.656;23.292;2023-12-20T12:30:27;93898.75;;;4.15;69.62
9676;BME280;4876;42.656;23.292;2023-12-20T12:32:55;93897.72;;;4.11;69.90
9676;BME280;4876;42.656;23.292;2023-12-20T12:35:21;93902.78;;;4.14;69.07
9676;BME280;4876;42.656;23.292;2023-12-20T12:37:47;93909.88;;;4.17;69.72
9676;BME280;4876;42.656;23.292;2023-12-20T12:40:14;93897.44;;;4.16;69.43
9676;BME280;4876;42.656;23.292;2023-12-20T12:42:42;93898.91;;;4.27;69.48
9676;BME280;4876;42.656;23.292;2023-12-20T12:45:09;93899.59;;;4.45;69.01
9676;BME280;4876;42.656;23.292;2023-12-20T12:47:35;93895.22;;;4.42;69.67
9676;BME280;4876;42.656;23.292;2023-12-20T12:50:01;93901.53;;;4.25;68.82
9676;BME280;4876;42.656;23.292;2023-12-20T12:52:26;93889.63;;;4.13;70.54
9676;BME280;4876;42.656;23.292;2023-12-20T12:54:53;93895.13;;;4.13;69.64
9676;BME280;4876;42.656;23.292;2023-12-20T12:57:19;93893.09;;;4.13;69.40
9676;BME280;4876;42.656;23.292;2023-12-20T12:59:45;93890.56;;;3.98;69.58
9676;BME280;4876;42.656;23.292;2023-12-20T13:02:12;93882.25;;;3.79;70.05
9676;BME280;4876;42.656;23.292;2023-12-20T13:04:39;93896.75;;;3.89;70.95
9676;BME280;4876;42.656;23.292;2023-12-20T13:07:05;93883.31;;;3.93;69.68
9676;BME280;4876;42.656;23.292;2023-12-20T13:09:31;93885.66;;;3.70;71.37
9676;BME280;4876;42.656;23.292;2023-12-20T13:11:57;93890.16;;;3.75;71.60
9676;BME280;4876;42.656;23.292;2023-12-20T13:14:22;93884.88;;;3.87;70.84